Time;durP1;ratioP1;P1;durP2;ratioP2;P2;SDS_P1;SDS_P2;PMS_P1;PMS_P2;Temp;Humidity;BMP_temperature;BMP_pressure;BME280_temperature;BME280_humidity;BME280_pressure;Samples;Min_cycle;Max_cycle;Signal;HPM_P1;HPM_P2
2022/01/28 00:03:00;;;;;;;4.03;1.88;;;18.10;47.60;;;;;;5036051;28;20036;-58
2022/01/28 00:04:55;;;;;;;3.55;1.90;;;18.10;47.60;;;;;;5035772;28;20034;-57
2022/01/28 00:07:21;;;;;;;3.00;1.85;;;18.10;47.60;;;;;;5035582;28;20477;-58
2022/01/28 00:09:50;;;;;;;2.67;1.65;;;18.10;47.60;;;;;;5035414;28;20045;-58
2022/01/28 00:12:16;;;;;;;2.78;1.73;;;18.10;47.60;;;;;;5034145;28;20022;-56
2022/01/28 00:15:01;;;;;;;2.50;1.98;;;18.10;47.60;;;;;;5035751;28;20036;-57
2022/01/28 00:38:57;;;;;;;3.15;1.90;;;18.00;47.60;;;;;;5038056;28;20059;-60
2022/01/28 00:41:31;;;;;;;2.38;1.73;;;18.00;47.60;;;;;;5035519;28;20485;-60
2022/01/28 00:43:56;;;;;;;2.85;1.75;;;18.00;47.50;;;;;;5033978;28;20083;-61
2022/01/28 00:46:23;;;;;;;4.35;2.13;;;18.00;47.50;;;;;;5035696;28;20079;-60
2022/01/28 00:48:49;;;;;;;4.68;1.63;;;18.00;47.60;;;;;;5035162;28;20034;-61
2022/01/28 00:51:15;;;;;;;3.05;1.75;;;18.00;47.60;;;;;;5035381;28;20030;-60
2022/01/28 00:53:41;;;;;;;2.30;1.60;;;18.00;47.60;;;;;;5036509;28;20101;-60
2022/01/28 00:56:07;;;;;;;2.53;1.88;;;18.00;47.50;;;;;;5036710;28;20045;-61
2022/01/28 00:58:33;;;;;;;2.22;1.63;;;18.00;47.60;;;;;;5036271;28;20477;-60
2022/01/28 01:00:59;;;;;;;2.38;1.40;;;17.90;47.50;;;;;;5036572;28;20036;-59
2022/01/28 01:03:25;;;;;;;3.40;1.95;;;17.90;47.50;;;;;;5034621;28;20439;-59
2022/01/28 01:05:51;;;;;;;3.60;1.92;;;17.90;47.50;;;;;;5036353;28;20614;-59
2022/01/28 01:08:17;;;;;;;4.00;1.88;;;17.90;47.50;;;;;;5035585;28;20480;-59
2022/01/28 01:10:43;;;;;;;3.03;1.83;;;17.90;47.50;;;;;;5035540;28;20684;-59
2022/01/28 01:13:09;;;;;;;2.03;1.70;;;17.90;47.50;;;;;;5037112;28;20478;-59
2022/01/28 01:15:40;;;;;;;2.47;1.65;;;17.90;47.50;;;;;;5036775;28;20064;-58
2022/01/28 01:23:12;;;;;;;2.20;1.60;;;17.90;47.50;;;;;;5035664;28;20396;-58
2022/01/28 01:25:51;;;;;;;3.13;2.20;;;17.90;47.50;;;;;;5035926;28;20029;-58
2022/01/28 01:28:19;;;;;;;2.78;1.98;;;17.90;47.50;;;;;;5035788;28;20020;-58
2022/01/28 01:30:46;;;;;;;3.20;1.50;;;17.80;47.40;;;;;;5035211;28;20025;-59
2022/01/28 01:33:12;;;;;;;2.25;1.30;;;17.90;47.50;;;;;;5035715;28;20092;-58
2022/01/28 01:35:38;;;;;;;2.38;1.52;;;17.80;47.50;;;;;;5036067;28;20014;-59
2022/01/28 01:38:09;;;;;;;4.03;1.73;;;17.80;47.50;;;;;;5035186;28;20018;-58
2022/01/28 01:40:46;;;;;;;3.47;2.20;;;17.80;47.50;;;;;;5034966;28;20025;-58
2022/01/28 01:43:19;;;;;;;4.63;1.70;;;17.80;48.00;;;;;;5034594;28;20068;-59
2022/01/28 01:53:58;;;;;;;2.92;1.90;;;17.80;47.50;;;;;;5033972;28;20514;-58
2022/01/28 01:56:24;;;;;;;1.60;1.50;;;17.80;47.50;;;;;;5033543;28;20108;-58
2022/01/28 01:58:50;;;;;;;2.33;1.65;;;17.80;47.40;;;;;;5033428;28;20113;-59
2022/01/28 02:01:16;;;;;;;2.40;1.75;;;17.80;47.50;;;;;;5034407;28;20032;-59
2022/01/28 02:03:42;;;;;;;2.92;1.80;;;17.70;47.40;;;;;;5034497;28;20030;-58
2022/01/28 02:06:08;;;;;;;2.83;1.70;;;17.80;47.40;;;;;;5034151;28;20614;-58
2022/01/28 02:08:34;;;;;;;2.15;1.55;;;17.80;47.40;;;;;;5034038;28;20025;-59
2022/01/28 02:11:01;;;;;;;3.00;1.95;;;17.80;47.40;;;;;;5033999;28;20032;-58
2022/01/28 02:13:34;;;;;;;2.92;1.65;;;17.70;47.40;;;;;;5035134;28;20020;-58
2022/01/28 02:16:01;;;;;;;3.35;1.88;;;17.70;47.40;;;;;;5036052;28;20014;-58
2022/01/28 02:18:27;;;;;;;2.05;1.48;;;17.70;47.40;;;;;;5036344;28;20066;-58
2022/01/28 02:20:58;;;;;;;2.85;1.90;;;17.70;47.30;;;;;;5035449;28;20055;-57
2022/01/28 02:23:25;;;;;;;4.30;1.85;;;17.60;47.30;;;;;;5034236;28;20025;-59
2022/01/28 02:25:51;;;;;;;2.85;1.73;;;17.70;47.40;;;;;;5033922;28;20017;-57
2022/01/28 02:28:21;;;;;;;2.45;1.50;;;17.70;47.40;;;;;;5034227;28;20045;-58
2022/01/28 02:30:47;;;;;;;3.72;1.70;;;17.70;47.40;;;;;;5034162;28;20026;-57
2022/01/28 02:33:17;;;;;;;2.47;1.65;;;17.60;47.30;;;;;;5034795;28;20014;-58
2022/01/28 02:35:44;;;;;;;3.92;1.98;;;17.70;47.40;;;;;;5035684;28;20018;-58
2022/01/28 02:38:10;;;;;;;3.65;2.08;;;17.60;47.30;;;;;;5035842;28;20072;-57
2022/01/28 02:40:37;;;;;;;4.50;2.30;;;17.70;47.40;;;;;;5035296;28;20022;-57
2022/01/28 02:44:02;;;;;;;2.85;1.40;;;17.60;47.30;;;;;;5037104;28;20131;-57
2022/01/28 02:45:51;;;;;;;4.43;1.48;;;17.60;47.30;;;;;;5042956;28;20060;-57
2022/01/28 02:48:29;;;;;;;3.33;1.60;;;17.60;47.30;;;;;;5040529;28;20028;-57
2022/01/28 02:53:26;;;;;;;2.60;1.80;;;17.60;47.30;;;;;;5041124;28;20022;-57
2022/01/28 02:55:58;;;;;;;2.15;1.65;;;17.60;47.30;;;;;;5040955;28;20017;-56
2022/01/28 02:58:24;;;;;;;3.00;1.70;;;17.60;47.30;;;;;;5040553;28;20041;-57
2022/01/28 03:00:52;;;;;;;2.70;1.80;;;17.60;47.30;;;;;;5039389;28;20083;-56
2022/01/28 03:03:19;;;;;;;2.40;1.50;;;17.60;47.30;;;;;;5039025;28;20044;-57
2022/01/28 03:05:45;;;;;;;5.55;1.75;;;17.60;47.30;;;;;;5038762;28;20555;-56
2022/01/28 03:08:12;;;;;;;2.22;1.60;;;17.60;47.30;;;;;;5038577;28;20018;-57
2022/01/28 03:15:53;;;;;;;2.67;1.65;;;17.50;47.20;;;;;;5047080;28;20021;-57
2022/01/28 03:18:25;;;;;;;2.72;1.60;;;17.50;47.20;;;;;;5038431;28;20033;-59
2022/01/28 03:23:19;;;;;;;3.28;1.77;;;17.50;47.20;;;;;;5037986;28;20064;-59
2022/01/28 03:25:46;;;;;;;3.05;1.55;;;17.50;47.20;;;;;;5036305;28;20037;-59
2022/01/28 03:28:13;;;;;;;2.70;1.42;;;17.50;47.20;;;;;;5036962;28;20105;-58
2022/01/28 03:30:39;;;;;;;3.33;1.60;;;17.50;47.20;;;;;;5035723;28;20518;-59
2022/01/28 03:33:05;;;;;;;2.38;1.63;;;17.50;47.20;;;;;;5036964;28;20021;-59
2022/01/28 03:35:33;;;;;;;2.78;1.58;;;17.50;47.20;;;;;;5036606;28;20022;-58
2022/01/28 03:38:00;;;;;;;2.63;1.40;;;17.50;47.20;;;;;;5036064;28;20024;-57
2022/01/28 03:40:27;;;;;;;3.28;1.63;;;17.50;47.20;;;;;;5035898;28;20032;-57
2022/01/28 03:42:54;;;;;;;2.90;1.60;;;17.50;47.20;;;;;;5036604;28;20032;-58
2022/01/28 03:45:20;;;;;;;2.13;1.40;;;17.50;47.20;;;;;;5036058;28;20022;-57
2022/01/28 03:47:47;;;;;;;2.80;1.60;;;17.50;47.20;;;;;;5035969;28;20468;-58
2022/01/28 03:50:13;;;;;;;2.60;1.50;;;17.50;47.20;;;;;;5036319;28;20113;-57
2022/01/28 03:52:39;;;;;;;2.47;1.50;;;17.50;47.20;;;;;;5036436;28;20072;-57
2022/01/28 03:55:05;;;;;;;2.42;1.60;;;17.50;47.20;;;;;;5035938;28;20026;-58
2022/01/28 03:57:30;;;;;;;3.63;1.83;;;17.40;47.10;;;;;;5036831;28;20041;-57
2022/01/28 03:59:56;;;;;;;3.17;1.85;;;17.40;47.20;;;;;;5036886;28;20546;-57
2022/01/28 04:02:27;;;;;;;1.75;1.50;;;17.40;47.20;;;;;;5035474;28;20407;-57
2022/01/28 04:12:51;;;;;;;2.90;1.80;;;17.40;47.10;;;;;;5035960;28;20116;-57
2022/01/28 04:15:36;;;;;;;3.28;1.63;;;17.40;47.10;;;;;;5035819;28;20014;-57
2022/01/28 04:18:02;;;;;;;2.63;1.80;;;17.40;47.10;;;;;;5035022;28;20022;-58
2022/01/28 04:20:30;;;;;;;2.13;1.65;;;17.40;47.10;;;;;;5034877;28;20018;-58
2022/01/28 04:22:57;;;;;;;1.95;1.48;;;17.50;47.00;;;;;;5034350;28;20021;-57
2022/01/28 04:25:23;;;;;;;2.92;1.75;;;17.50;46.80;;;;;;5035377;28;20014;-57
2022/01/28 04:27:49;;;;;;;2.38;1.60;;;17.60;46.40;;;;;;5035854;28;20025;-58
2022/01/28 04:30:15;;;;;;;2.28;1.50;;;17.80;46.20;;;;;;5035542;28;20030;-58
2022/01/28 04:32:41;;;;;;;2.00;1.48;;;17.80;46.00;;;;;;5035599;28;20205;-57
2022/01/28 04:35:07;;;;;;;2.95;1.40;;;17.90;45.80;;;;;;5034342;28;20133;-58
2022/01/28 04:37:48;;;;;;;2.53;1.60;;;18.00;45.70;;;;;;5034987;28;20033;-57
2022/01/28 04:40:42;;;;;;;2.57;1.70;;;18.10;45.50;;;;;;5034850;28;20026;-56
2022/01/28 04:43:22;;;;;;;;;;;18.20;45.70;;;;;;5037390;28;20280;-57
2022/01/28 04:48:43;;;;;;;2.13;1.63;;;18.40;44.80;;;;;;5036599;28;20066;-57
2022/01/28 05:27:28;;;;;;;2.72;1.63;;;19.60;42.30;;;;;;5035031;28;20515;-56
2022/01/28 05:29:55;;;;;;;2.15;1.30;;;19.70;42.20;;;;;;5034868;28;20021;-56
2022/01/28 05:32:40;;;;;;;2.05;1.40;;;19.80;42.00;;;;;;5034845;28;20043;-55
2022/01/28 05:35:07;;;;;;;1.33;1.23;;;19.90;41.80;;;;;;5034717;28;20376;-56
2022/01/28 05:37:53;;;;;;;2.17;1.27;;;19.90;41.60;;;;;;5034572;28;20029;-57
2022/01/28 05:40:39;;;;;;;4.50;1.40;;;20.00;41.60;;;;;;5034555;28;20044;-57
2022/01/28 05:43:05;;;;;;;4.47;1.33;;;20.10;41.50;;;;;;5034759;28;20164;-57
2022/01/28 05:45:33;;;;;;;3.67;1.38;;;20.10;41.30;;;;;;5034369;28;20037;-57
2022/01/28 05:48:20;;;;;;;2.70;1.50;;;20.20;41.30;;;;;;5034657;28;20064;-57
2022/01/28 05:51:06;;;;;;;2.20;1.20;;;20.20;41.10;;;;;;5034943;28;20095;-57
2022/01/28 05:53:53;;;;;;;2.28;1.40;;;20.30;41.00;;;;;;5035075;28;20021;-57
2022/01/28 05:56:19;;;;;;;2.00;1.48;;;20.40;40.80;;;;;;5034881;28;20492;-57
2022/01/28 05:58:45;;;;;;;2.17;1.50;;;20.40;40.80;;;;;;5034776;28;20020;-57
2022/01/28 06:01:31;;;;;;;2.30;1.40;;;20.50;40.60;;;;;;5100371;22;20045;-79
2022/01/28 06:03:57;;;;;;;2.05;1.58;;;20.60;40.50;;;;;;5034418;28;20027;-80
2022/01/28 06:06:24;;;;;;;1.90;1.20;;;20.60;40.40;;;;;;5034341;28;20040;-80
2022/01/28 06:08:54;;;;;;;2.03;1.15;;;20.70;40.30;;;;;;5035660;28;20049;-80
2022/01/28 06:11:38;;;;;;;2.72;1.60;;;20.70;40.30;;;;;;5030827;28;20038;-80
2022/01/28 06:14:03;;;;;;;1.63;1.20;;;20.80;40.10;;;;;;5033730;28;20036;-80
2022/01/28 06:16:29;;;;;;;2.25;1.33;;;20.80;40.10;;;;;;5032499;28;20472;-80
2022/01/28 06:18:55;;;;;;;2.65;1.48;;;20.90;40.00;;;;;;5032383;28;20026;-79
2022/01/28 06:21:21;;;;;;;2.83;1.40;;;21.00;40.00;;;;;;5033396;28;20017;-80
2022/01/28 06:23:48;;;;;;;2.97;1.60;;;21.00;39.90;;;;;;5032407;28;20075;-79
2022/01/28 06:26:14;;;;;;;1.63;1.33;;;21.10;39.70;;;;;;5015916;28;20018;-79
2022/01/28 06:28:40;;;;;;;2.05;1.40;;;21.10;39.70;;;;;;5032033;28;20472;-81
2022/01/28 06:31:07;;;;;;;2.80;1.33;;;21.20;39.60;;;;;;5039022;28;20037;-80
2022/01/28 06:33:33;;;;;;;1.63;1.23;;;21.20;39.50;;;;;;5042353;28;20025;-81
2022/01/28 06:36:03;;;;;;;2.85;1.50;;;21.30;39.50;;;;;;5042299;28;20028;-81
2022/01/28 06:38:29;;;;;;;2.58;1.38;;;21.30;39.30;;;;;;5041471;28;20020;-81
2022/01/28 06:40:56;;;;;;;2.53;1.23;;;21.30;39.30;;;;;;5039589;28;20029;-79
2022/01/28 06:43:21;;;;;;;2.65;1.40;;;21.40;39.20;;;;;;5033386;28;20044;-80
2022/01/28 06:45:47;;;;;;;3.63;1.73;;;21.40;39.20;;;;;;5033017;28;20018;-79
2022/01/28 06:48:13;;;;;;;2.03;1.30;;;21.50;39.20;;;;;;5033097;28;20014;-79
2022/01/28 06:50:43;;;;;;;4.50;1.45;;;21.50;39.10;;;;;;5032217;28;20112;-79
2022/01/28 06:53:13;;;;;;;2.38;1.42;;;21.50;39.00;;;;;;5034301;28;20367;-79
2022/01/28 06:55:39;;;;;;;2.25;1.23;;;21.60;39.00;;;;;;5033162;28;20480;-79
2022/01/28 06:58:08;;;;;;;1.60;1.13;;;21.60;38.90;;;;;;5018119;28;20018;-79
2022/01/28 07:00:37;;;;;;;1.88;1.17;;;21.70;38.80;;;;;;5036439;28;20022;-81
2022/01/28 07:03:12;;;;;;;2.83;1.38;;;21.70;38.80;;;;;;5019120;28;20041;-79
2022/01/28 07:05:39;;;;;;;2.13;1.20;;;21.80;38.70;;;;;;5034960;28;20060;-78
2022/01/28 07:08:05;;;;;;;1.85;1.10;;;21.80;38.60;;;;;;5017642;28;20018;-78
2022/01/28 07:10:32;;;;;;;1.80;1.30;;;21.90;38.50;;;;;;5034341;28;20021;-79
2022/01/28 07:12:59;;;;;;;2.03;1.13;;;21.90;38.50;;;;;;5034566;28;20049;-80
2022/01/28 07:15:34;;;;;;;2.30;1.40;;;21.90;38.50;;;;;;5017442;28;20030;-79
2022/01/28 07:18:02;;;;;;;2.85;1.65;;;22.00;38.40;;;;;;5021690;28;20024;-79
2022/01/28 07:20:39;;;;;;;3.17;1.67;;;22.00;38.30;;;;;;5043200;28;20014;-76
2022/01/28 07:23:06;;;;;;;6.82;1.88;;;22.10;38.20;;;;;;5040321;28;20014;-78
2022/01/28 07:25:32;;;;;;;17.58;2.97;;;22.00;40.00;;;;;;5046580;28;20029;-79
2022/01/28 07:27:58;;;;;;;10.98;3.30;;;22.00;41.40;;;;;;5045837;28;20017;-77
2022/01/28 07:30:24;;;;;;;10.07;3.50;;;21.90;41.80;;;;;;5053936;28;20025;-77
2022/01/28 07:32:52;;;;;;;15.25;3.55;;;21.90;41.90;;;;;;5052302;28;20028;-80
2022/01/28 07:35:20;;;;;;;13.10;3.63;;;21.90;41.70;;;;;;5053086;28;20002;-77
2022/01/28 07:38:11;;;;;;;27.63;3.90;;;21.90;41.50;;;;;;5053666;28;20069;-84
2022/01/28 07:40:47;;;;;;;13.07;3.90;;;22.00;41.10;;;;;;5033785;28;20104;-79
2022/01/28 07:43:14;;;;;;;11.15;3.63;;;22.00;40.80;;;;;;5039203;28;20151;-81
2022/01/28 07:45:43;;;;;;;11.57;3.85;;;22.00;40.60;;;;;;5019512;28;20021;-79
2022/01/28 07:48:11;;;;;;;15.30;4.50;;;22.00;40.30;;;;;;5039562;28;20030;-80
2022/01/28 07:50:40;;;;;;;12.45;3.90;;;22.10;39.80;;;;;;5039996;28;20026;-80
2022/01/28 07:53:26;;;;;;;13.05;4.18;;;22.10;39.50;;;;;;5035619;28;20022;-78
2022/01/28 07:55:52;;;;;;;10.55;3.78;;;22.20;39.20;;;;;;5037741;28;20029;-81
2022/01/28 07:58:25;;;;;;;12.70;4.75;;;22.20;38.80;;;;;;5038514;28;20085;-82
2022/01/28 08:00:50;;;;;;;15.52;3.92;;;22.30;38.40;;;;;;5036389;28;20026;-82
2022/01/28 08:03:16;;;;;;;11.20;4.47;;;22.40;38.20;;;;;;5022663;28;20034;-80
2022/01/28 08:05:43;;;;;;;17.27;4.38;;;22.40;38.10;;;;;;5039105;28;20166;-82
2022/01/28 08:08:12;;;;;;;14.48;4.47;;;22.40;38.30;;;;;;5034844;28;20030;-82
2022/01/28 08:10:37;;;;;;;13.93;4.50;;;22.40;38.00;;;;;;5034794;28;20103;-78
2022/01/28 08:13:05;;;;;;;17.23;4.35;;;22.40;37.70;;;;;;5035174;28;20472;-78
2022/01/28 08:15:31;;;;;;;14.43;4.72;;;22.40;37.30;;;;;;5041056;28;20017;-78
2022/01/28 08:17:57;;;;;;;19.65;4.63;;;22.40;37.10;;;;;;5040492;28;20013;-76
2022/01/28 08:20:23;;;;;;;19.90;5.03;;;22.30;36.90;;;;;;5041878;28;20033;-79
2022/01/28 08:22:50;;;;;;;12.93;4.50;;;22.10;36.70;;;;;;5038834;28;20036;-77
2022/01/28 08:25:19;;;;;;;17.92;4.60;;;22.10;36.50;;;;;;5038376;28;20436;-78
2022/01/28 08:27:45;;;;;;;8.45;3.63;;;22.10;36.30;;;;;;5040525;28;20018;-77
2022/01/28 08:30:15;;;;;;;14.13;4.63;;;22.00;36.10;;;;;;5017942;28;20036;-78
2022/01/28 08:32:41;;;;;;;24.13;4.53;;;22.00;35.90;;;;;;5035236;28;20036;-79
2022/01/28 08:35:07;;;;;;;10.48;4.07;;;22.10;35.70;;;;;;5017235;28;20036;-77
2022/01/28 08:37:36;;;;;;;20.05;4.57;;;22.10;35.40;;;;;;5034035;28;20093;-77
2022/01/28 08:40:02;;;;;;;11.18;4.03;;;22.30;35.40;;;;;;5033239;28;20017;-77
2022/01/28 08:42:28;;;;;;;12.55;3.90;;;22.30;35.10;;;;;;5018715;28;20061;-78
2022/01/28 08:44:54;;;;;;;10.23;4.50;;;22.30;35.10;;;;;;5017943;28;20045;-80
2022/01/28 08:47:21;;;;;;;11.85;4.45;;;22.40;35.00;;;;;;5035642;28;20478;-79
2022/01/28 08:49:47;;;;;;;14.80;4.55;;;22.30;34.90;;;;;;5035019;28;20121;-79
2022/01/28 08:52:13;;;;;;;12.13;4.50;;;22.40;34.80;;;;;;5034690;28;20029;-78
2022/01/28 08:54:43;;;;;;;15.23;4.13;;;22.40;34.80;;;;;;5018717;28;20030;-81
2022/01/28 08:57:09;;;;;;;14.13;4.53;;;22.40;34.70;;;;;;5034986;28;20020;-80
2022/01/28 08:59:36;;;;;;;10.35;4.28;;;22.40;34.60;;;;;;5034772;28;20018;-79
2022/01/28 09:02:05;;;;;;;11.95;4.65;;;22.40;34.50;;;;;;5020030;28;20061;-80
2022/01/28 09:04:36;;;;;;;15.15;4.38;;;22.40;34.60;;;;;;5037231;28;20148;-80
2022/01/28 09:07:01;;;;;;;15.50;4.85;;;22.30;34.80;;;;;;5020175;28;20025;-80
2022/01/28 09:09:35;;;;;;;17.42;4.43;;;22.20;34.70;;;;;;5036538;28;20013;-79
2022/01/28 09:12:08;;;;;;;13.32;4.50;;;22.40;34.80;;;;;;5020386;28;20017;-79
2022/01/28 09:14:34;;;;;;;13.18;4.38;;;22.50;34.70;;;;;;5036161;28;20017;-79
2022/01/28 09:17:06;;;;;;;12.80;3.67;;;22.50;34.60;;;;;;5037452;28;20014;-79
2022/01/28 09:19:32;;;;;;;11.43;4.65;;;22.70;34.70;;;;;;5035980;28;20032;-78
2022/01/28 09:21:58;;;;;;;17.77;4.95;;;22.50;35.00;;;;;;5035642;28;20013;-78
2022/01/28 09:24:27;;;;;;;18.48;4.55;;;22.50;35.10;;;;;;5034804;28;20037;-79
2022/01/28 09:26:56;;;;;;;13.77;4.43;;;22.40;35.20;;;;;;5033899;28;20543;-79
2022/01/28 09:29:22;;;;;;;14.05;4.88;;;22.30;35.40;;;;;;5017263;28;20033;-78
2022/01/28 09:31:49;;;;;;;12.57;4.68;;;22.40;35.40;;;;;;5033612;28;20025;-79
2022/01/28 09:34:15;;;;;;;10.02;4.72;;;22.40;35.40;;;;;;5018023;28;20021;-79
2022/01/28 09:36:41;;;;;;;10.52;4.53;;;22.40;35.40;;;;;;5040957;28;20006;-78
2022/01/28 09:39:07;;;;;;;11.25;4.70;;;22.40;35.40;;;;;;5019088;28;20041;-78
2022/01/28 09:41:34;;;;;;;9.77;4.50;;;22.40;35.50;;;;;;5018658;28;20491;-78
2022/01/28 09:44:02;;;;;;;9.38;4.25;;;22.40;35.40;;;;;;5018670;28;20099;-80
2022/01/28 09:46:28;;;;;;;15.35;4.53;;;22.40;35.50;;;;;;5020805;28;20147;-80
2022/01/28 09:48:55;;;;;;;15.45;4.90;;;22.40;35.50;;;;;;5038440;28;20018;-79
2022/01/28 09:51:28;;;;;;;12.88;4.57;;;22.50;35.60;;;;;;5025772;28;20491;-79
2022/01/28 09:53:55;;;;;;;12.82;4.53;;;22.50;35.50;;;;;;5043789;28;20093;-78
2022/01/28 09:56:20;;;;;;;15.60;4.30;;;22.50;35.50;;;;;;5031608;28;20077;-77
2022/01/28 09:58:46;;;;;;;11.05;5.18;;;22.40;35.60;;;;;;5049341;28;20428;-77
2022/01/28 10:01:12;;;;;;;18.30;4.53;;;22.40;35.70;;;;;;5047113;28;20495;-78
2022/01/28 10:03:41;;;;;;;25.88;5.60;;;22.40;35.70;;;;;;5049297;28;20029;-76
2022/01/28 10:06:10;;;;;;;32.10;5.82;;;22.30;35.80;;;;;;5047945;28;20026;-77
2022/01/28 10:08:41;;;;;;;15.18;4.75;;;22.40;35.80;;;;;;5023321;28;20056;-80
2022/01/28 10:11:11;;;;;;;67.40;9.25;;;22.40;36.00;;;;;;5022273;28;20033;-78
2022/01/28 10:13:54;;;;;;;40.28;7.50;;;22.30;36.30;;;;;;5019152;28;20052;-79
2022/01/28 10:16:24;;;;;;;47.30;8.68;;;22.20;36.60;;;;;;5017728;28;20024;-78
2022/01/28 10:18:55;;;;;;;36.85;7.57;;;22.20;36.60;;;;;;5016324;28;20018;-79
2022/01/28 10:21:26;;;;;;;36.83;7.38;;;22.10;36.60;;;;;;5001452;28;20483;-78
2022/01/28 10:24:05;;;;;;;30.10;7.07;;;22.00;36.90;;;;;;5031647;28;20025;-76
2022/01/28 10:26:33;;;;;;;30.63;7.43;;;22.00;37.00;;;;;;5032002;28;20024;-77
2022/01/28 10:29:00;;;;;;;23.15;6.53;;;22.00;37.10;;;;;;5031265;28;20091;-77
2022/01/28 10:31:47;;;;;;;21.15;6.55;;;22.00;37.00;;;;;;5030675;28;20029;-77
2022/01/28 10:34:22;;;;;;;18.95;7.03;;;22.00;37.00;;;;;;5014393;28;20014;-76
2022/01/28 10:36:51;;;;;;;15.80;8.13;;;22.10;37.00;;;;;;5032160;28;20052;-78
2022/01/28 10:39:19;;;;;;;14.40;7.82;;;22.10;37.00;;;;;;5031078;28;20014;-77
2022/01/28 10:41:55;;;;;;;24.13;8.75;;;22.20;36.80;;;;;;5031280;28;20076;-76
2022/01/28 10:44:23;;;;;;;16.48;9.02;;;22.20;36.70;;;;;;5033461;28;20021;-79
2022/01/28 10:46:55;;;;;;;29.50;9.73;;;22.20;36.60;;;;;;5035533;28;20025;-80
2022/01/28 10:49:33;;;;;;;22.42;8.45;;;22.20;36.60;;;;;;5035640;28;20026;-78
2022/01/28 10:52:12;;;;;;;21.98;8.30;;;22.20;36.70;;;;;;5034759;28;20089;-79
2022/01/28 10:54:38;;;;;;;17.55;7.03;;;22.20;36.70;;;;;;5032750;28;20025;-78
2022/01/28 10:57:06;;;;;;;18.52;7.25;;;22.20;36.80;;;;;;5018959;28;20021;-78
2022/01/28 10:59:38;;;;;;;16.30;7.40;;;22.00;36.90;;;;;;5035390;28;20021;-77
2022/01/28 11:02:05;;;;;;;21.42;7.80;;;22.10;37.00;;;;;;5021877;28;20053;-78
2022/01/28 11:04:33;;;;;;;12.25;6.78;;;22.20;37.00;;;;;;5023154;28;20029;-78
2022/01/28 11:07:00;;;;;;;17.35;6.40;;;22.20;36.90;;;;;;5022882;28;20113;-77
2022/01/28 11:09:26;;;;;;;21.38;6.90;;;22.20;37.00;;;;;;5039175;28;20100;-77
2022/01/28 11:11:52;;;;;;;15.45;5.93;;;22.20;36.90;;;;;;5021184;28;20452;-78
2022/01/28 11:14:20;;;;;;;19.00;6.32;;;22.30;36.90;;;;;;5044528;28;20024;-77
2022/01/28 11:16:46;;;;;;;13.70;5.95;;;22.30;36.80;;;;;;5037264;28;20022;-77
2022/01/28 11:19:14;;;;;;;17.30;6.13;;;22.30;36.80;;;;;;5037340;28;20009;-76
2022/01/28 11:21:52;;;;;;;10.90;5.75;;;22.40;36.80;;;;;;5036835;28;20048;-76
2022/01/28 11:24:56;;;;;;;14.43;5.82;;;22.30;36.80;;;;;;5038593;28;20059;-77
2022/01/28 11:27:31;;;;;;;12.48;5.63;;;22.40;36.90;;;;;;5039811;28;20033;-78
2022/01/28 11:30:18;;;;;;;11.80;5.03;;;22.30;36.90;;;;;;5036961;28;20098;-78
2022/01/28 11:33:08;;;;;;;8.85;5.35;;;22.40;36.90;;;;;;5038378;28;20033;-77
2022/01/28 11:35:42;;;;;;;10.27;4.80;;;22.50;36.90;;;;;;5021058;28;20014;-78
2022/01/28 11:38:42;;;;;;;11.45;4.70;;;22.40;36.90;;;;;;5021602;28;20767;-77
2022/01/28 11:41:21;;;;;;;15.60;5.53;;;22.40;36.90;;;;;;5032837;28;20041;-77
2022/01/28 11:43:56;;;;;;;11.70;5.60;;;22.50;37.00;;;;;;5036289;28;20494;-77
2022/01/28 11:46:35;;;;;;;10.00;5.63;;;22.40;37.00;;;;;;5018960;28;20552;-76
2022/01/28 11:49:02;;;;;;;13.85;5.88;;;22.40;37.20;;;;;;5034300;28;20468;-78
2022/01/28 11:51:38;;;;;;;17.63;6.15;;;22.40;38.30;;;;;;5034250;28;20044;-75
2022/01/28 11:54:13;;;;;;;21.75;8.65;;;22.50;39.10;;;;;;5033969;28;20013;-75
2022/01/28 11:56:56;;;;;;;24.35;12.07;;;22.10;39.40;;;;;;5033738;28;20010;-76
2022/01/28 11:59:30;;;;;;;21.80;12.93;;;21.00;39.60;;;;;;5034423;28;20076;-76
2022/01/28 12:01:55;;;;;;;22.83;13.88;;;19.70;41.50;;;;;;5016921;28;20049;-76
2022/01/28 12:04:29;;;;;;;20.02;13.80;;;18.90;43.00;;;;;;5034908;28;20088;-76
2022/01/28 12:06:55;;;;;;;24.77;14.73;;;18.50;43.70;;;;;;5033777;28;20032;-75
2022/01/28 12:09:23;;;;;;;27.90;14.60;;;18.20;44.60;;;;;;5033871;28;20052;-78
2022/01/28 12:11:51;;;;;;;25.73;15.25;;;17.90;45.20;;;;;;5033844;28;20136;-78
2022/01/28 12:14:18;;;;;;;25.25;14.50;;;17.80;45.50;;;;;;5017578;28;20056;-77
2022/01/28 12:16:46;;;;;;;22.95;15.52;;;17.60;46.20;;;;;;5033094;28;20029;-78
2022/01/28 12:19:17;;;;;;;22.38;15.02;;;17.50;46.30;;;;;;5033257;28;20021;-77
2022/01/28 12:22:09;;;;;;;24.50;15.38;;;17.40;46.90;;;;;;5033369;28;20468;-76
2022/01/28 12:24:37;;;;;;;25.60;15.57;;;17.30;47.00;;;;;;5033451;28;20025;-79
2022/01/28 12:27:04;;;;;;;19.30;14.77;;;16.90;47.80;;;;;;5016583;28;20045;-79
2022/01/28 12:29:31;;;;;;;21.27;14.60;;;17.10;47.50;;;;;;5033033;28;20026;-79
2022/01/28 12:32:00;;;;;;;20.75;14.65;;;17.00;47.80;;;;;;5017025;28;20017;-78
2022/01/28 12:34:26;;;;;;;21.17;14.63;;;17.00;47.90;;;;;;5033723;28;20040;-77
2022/01/28 12:36:58;;;;;;;21.27;14.38;;;17.10;47.70;;;;;;5033129;28;20018;-80
2022/01/28 12:39:43;;;;;;;179.50;23.83;;;17.10;47.70;;;;;;5032551;28;20452;-78
2022/01/28 12:42:22;;;;;;;36.08;15.27;;;17.20;47.40;;;;;;5032528;28;20080;-80
2022/01/28 12:45:06;;;;;;;23.98;13.95;;;17.20;47.10;;;;;;5003505;28;20406;-78
2022/01/28 12:47:33;;;;;;;26.77;14.20;;;16.90;47.30;;;;;;5033999;28;20040;-79
2022/01/28 12:50:05;;;;;;;22.58;14.77;;;16.80;47.90;;;;;;5033405;28;20443;-77
2022/01/28 12:52:32;;;;;;;21.70;14.18;;;16.40;49.00;;;;;;5033218;28;20029;-76
2022/01/28 12:55:12;;;;;;;16.40;13.40;;;16.20;49.50;;;;;;5018382;28;20068;-76
2022/01/28 12:57:42;;;;;;;23.35;14.13;;;16.10;49.20;;;;;;5035793;28;20018;-77
2022/01/28 13:00:11;;;;;;;15.10;12.65;;;15.90;49.70;;;;;;5018173;28;20433;-78
2022/01/28 13:02:37;;;;;;;19.85;12.73;;;15.80;50.60;;;;;;5035908;28;20099;-77
2022/01/28 13:10:27;;;;;;;19.75;13.52;;;15.80;50.50;;;;;;5033559;28;20074;-75
2022/01/28 13:13:13;;;;;;;32.22;13.60;;;15.50;50.80;;;;;;5033264;28;20013;-76
2022/01/28 13:15:39;;;;;;;19.50;13.27;;;15.60;51.40;;;;;;5017646;28;20022;-77
2022/01/28 13:18:05;;;;;;;19.23;13.25;;;15.60;51.30;;;;;;5034035;28;20127;-76
2022/01/28 13:20:39;;;;;;;21.02;13.85;;;15.70;50.70;;;;;;5034459;28;20025;-76
2022/01/28 13:23:05;;;;;;;20.65;13.88;;;15.60;51.20;;;;;;5017848;28;20060;-76
2022/01/28 13:25:31;;;;;;;18.52;14.75;;;15.40;51.50;;;;;;5017335;28;20097;-77
2022/01/28 13:28:01;;;;;;;19.05;14.77;;;15.40;51.60;;;;;;5016399;28;20047;-78
2022/01/28 13:30:39;;;;;;;17.98;14.07;;;15.40;51.40;;;;;;5033491;28;20025;-77
2022/01/28 13:33:07;;;;;;;33.25;14.95;;;15.50;51.20;;;;;;5038398;28;20136;-76
2022/01/28 13:35:36;;;;;;;23.58;14.40;;;15.50;51.50;;;;;;5041374;28;20085;-76
2022/01/28 13:38:07;;;;;;;24.42;15.57;;;15.70;50.90;;;;;;5039452;28;20021;-76
2022/01/28 13:40:39;;;;;;;24.52;15.68;;;15.80;50.50;;;;;;5039441;28;20017;-77
2022/01/28 13:43:15;;;;;;;25.88;15.18;;;15.50;51.30;;;;;;5039590;28;20014;-76
2022/01/28 13:45:51;;;;;;;25.23;15.52;;;15.60;51.60;;;;;;5023993;28;20102;-76
2022/01/28 13:48:22;;;;;;;27.20;17.85;;;15.60;51.50;;;;;;5034117;28;20547;-76
2022/01/28 13:50:52;;;;;;;27.38;17.75;;;15.50;51.40;;;;;;5016562;28;20045;-77
2022/01/28 13:55:53;;;;;;;53.53;20.25;;;15.60;51.60;;;;;;5033903;28;20028;-77
2022/01/28 13:58:19;;;;;;;49.33;18.95;;;15.70;51.40;;;;;;5034030;28;20128;-77
2022/01/28 14:00:46;;;;;;;33.95;19.75;;;15.70;51.40;;;;;;5033218;28;20132;-77
2022/01/28 14:03:28;;;;;;;32.75;17.42;;;15.80;51.50;;;;;;5032561;28;20029;-76
2022/01/28 14:05:58;;;;;;;30.08;19.10;;;15.90;51.30;;;;;;5017645;28;20018;-77
2022/01/28 14:08:54;;;;;;;36.60;20.08;;;15.80;51.40;;;;;;5034090;28;20052;-77
2022/01/28 14:11:25;;;;;;;29.33;21.58;;;15.50;51.70;;;;;;5032883;28;20021;-76
2022/01/28 14:14:26;;;;;;;32.03;18.88;;;15.40;52.40;;;;;;5034793;28;20071;-77
2022/01/28 14:17:07;;;;;;;32.95;17.58;;;15.70;52.80;;;;;;5033822;28;20025;-78
2022/01/28 14:19:34;;;;;;;26.83;16.08;;;16.40;51.10;;;;;;5018284;28;20010;-78
2022/01/28 14:22:00;;;;;;;25.55;15.32;;;16.90;49.60;;;;;;5034364;28;20028;-77
2022/01/28 14:24:34;;;;;;;24.95;13.52;;;17.50;48.30;;;;;;5017897;28;20030;-78
2022/01/28 14:32:05;;;;;;;19.70;11.18;;;18.50;45.40;;;;;;5034159;28;20039;-76
2022/01/28 14:34:31;;;;;;;20.40;10.45;;;18.80;44.90;;;;;;5017106;28;20017;-78
2022/01/28 14:36:58;;;;;;;21.05;10.27;;;19.00;44.30;;;;;;5032952;28;20071;-77
2022/01/28 14:39:24;;;;;;;17.27;9.73;;;19.20;43.90;;;;;;5035513;28;20074;-77
2022/01/28 14:41:53;;;;;;;16.70;10.00;;;19.40;43.50;;;;;;5037655;28;20026;-76